createdAt,value
2019-04-28T00:01:01.659Z,16.37
2019-04-28T00:03:47.658Z,14.63
2019-04-28T00:06:33.337Z,15.23
2019-04-28T00:09:21.332Z,15.53
2019-04-28T00:12:07.697Z,14.93
2019-04-28T00:14:53.466Z,13.97
2019-04-28T00:17:41.903Z,12.80
2019-04-28T00:20:52.897Z,13.17
2019-04-28T00:24:04.705Z,11.63
2019-04-28T00:26:53.848Z,13.70
2019-04-28T00:29:43.870Z,13.37
2019-04-28T00:32:28.302Z,12.23
2019-04-28T00:35:14.110Z,11.90
2019-04-28T00:38:01.428Z,11.50
2019-04-28T00:40:49.006Z,11.87
2019-04-28T00:43:34.437Z,11.60
2019-04-28T00:46:24.280Z,11.97
2019-04-28T00:49:11.927Z,11.17
2019-04-28T00:51:58.002Z,10.70
2019-04-28T00:54:45.046Z,10.00
2019-04-28T00:57:31.250Z,9.87
2019-04-28T01:00:19.070Z,9.77
2019-04-28T01:03:04.602Z,9.90
2019-04-28T01:05:50.866Z,10.00
2019-04-28T01:08:37.113Z,9.03
2019-04-28T01:11:23.238Z,8.40
2019-04-28T01:14:08.993Z,9.37
2019-04-28T01:17:19.805Z,9.00
2019-04-28T01:20:09.798Z,7.47
2019-04-28T01:22:55.876Z,8.43
2019-04-28T01:25:42.293Z,7.47
2019-04-28T01:28:29.751Z,8.03
2019-04-28T01:31:39.610Z,8.10
2019-04-28T01:34:25.362Z,6.77
2019-04-28T01:37:11.576Z,7.43
2019-04-28T01:39:59.567Z,7.87
2019-04-28T01:42:45.489Z,6.63
2019-04-28T01:45:30.959Z,7.17
2019-04-28T01:48:17.687Z,7.37
2019-04-28T01:51:03.210Z,6.37
2019-04-28T01:53:50.475Z,6.60
2019-04-28T01:56:37.059Z,6.73
2019-04-28T01:59:22.871Z,6.83
2019-04-28T02:02:10.237Z,6.73
2019-04-28T02:04:56.379Z,6.47
2019-04-28T02:07:41.870Z,7.37
2019-04-28T02:10:27.566Z,6.37
2019-04-28T02:13:14.040Z,6.67
2019-04-28T02:16:00.914Z,5.87
2019-04-28T02:18:46.511Z,6.03
2019-04-28T02:21:41.835Z,5.90
2019-04-28T02:24:30.528Z,5.67
2019-04-28T02:27:16.314Z,6.13
2019-04-28T02:30:02.310Z,5.57
2019-04-28T02:32:51.616Z,5.30
2019-04-28T02:35:35.851Z,5.80
2019-04-28T02:38:26.367Z,5.80
2019-04-28T02:41:12.164Z,5.53
2019-04-28T02:43:57.867Z,5.00
2019-04-28T02:46:44.207Z,4.83
2019-04-28T02:49:43.673Z,5.37
2019-04-28T02:52:47.890Z,5.20
2019-04-28T02:55:33.369Z,5.30
2019-04-28T02:58:22.111Z,5.23
2019-04-28T03:01:18.553Z,5.03
2019-04-28T03:03:54.620Z,5.00
2019-04-28T03:06:41.098Z,4.93
2019-04-28T03:09:30.403Z,5.40
2019-04-28T03:12:15.308Z,5.00
2019-04-28T03:15:01.014Z,4.80
2019-04-28T03:17:47.272Z,4.40
2019-04-28T03:20:33.763Z,6.13
2019-04-28T03:23:20.695Z,5.87
2019-04-28T03:26:23.425Z,4.93
2019-04-28T03:29:32.029Z,5.50
2019-04-28T03:32:52.867Z,4.80
2019-04-28T03:35:32.832Z,5.33
2019-04-28T03:38:21.379Z,4.77
2019-04-28T03:41:07.144Z,5.67
2019-04-28T03:43:53.103Z,5.40
2019-04-28T03:46:44.791Z,5.00
2019-04-28T03:49:32.112Z,5.33
2019-04-28T03:52:20.992Z,4.63
2019-04-28T03:55:06.197Z,4.90
2019-04-28T03:57:52.061Z,5.77
2019-04-28T04:00:40.618Z,5.53
2019-04-28T04:03:25.115Z,5.47
2019-04-28T04:06:10.803Z,5.03
2019-04-28T04:08:56.598Z,5.97
2019-04-28T04:11:50.872Z,5.23
2019-04-28T04:15:05.057Z,5.03
2019-04-28T04:18:11.088Z,5.43
2019-04-28T04:20:56.810Z,5.33
2019-04-28T04:23:42.427Z,4.77
2019-04-28T04:26:32.879Z,5.03
2019-04-28T04:29:16.915Z,4.80
2019-04-28T04:32:15.702Z,4.97
2019-04-28T04:34:50.881Z,5.03
2019-04-28T04:37:40.640Z,5.30
2019-04-28T04:40:27.149Z,5.50
2019-04-28T04:43:12.573Z,4.73
2019-04-28T04:46:22.122Z,4.43
2019-04-28T04:49:07.000Z,4.73
2019-04-28T04:51:53.106Z,4.43
2019-04-28T04:54:40.100Z,5.20
2019-04-28T04:57:26.317Z,5.30
2019-04-28T05:00:17.676Z,5.67
2019-04-28T05:03:10.613Z,5.53
2019-04-28T05:05:56.580Z,5.17
2019-04-28T05:08:42.503Z,5.17
2019-04-28T05:11:29.987Z,4.70
2019-04-28T05:14:16.053Z,4.47
2019-04-28T05:17:02.408Z,5.03
2019-04-28T05:19:49.698Z,5.57
2019-04-28T05:22:42.643Z,4.17
2019-04-28T05:25:34.260Z,4.10
2019-04-28T05:28:20.379Z,4.80
2019-04-28T05:31:06.336Z,5.70
2019-04-28T05:33:51.944Z,5.47
2019-04-28T05:36:42.474Z,4.87
2019-04-28T05:39:25.959Z,4.77
2019-04-28T05:42:11.792Z,4.47
2019-04-28T05:44:59.800Z,5.30
2019-04-28T05:47:45.579Z,4.57
2019-04-28T05:50:36.991Z,6.17
2019-04-28T05:53:30.122Z,4.70
2019-04-28T05:56:23.685Z,4.93
2019-04-28T05:59:13.553Z,5.47
2019-04-28T06:02:12.182Z,5.43
2019-04-28T06:04:59.933Z,4.80
2019-04-28T06:08:11.601Z,5.37
2019-04-28T06:10:57.224Z,5.23
2019-04-28T06:13:42.913Z,4.83
2019-04-28T06:16:30.483Z,5.00
2019-04-28T06:19:16.493Z,5.73
2019-04-28T06:22:02.048Z,4.90
2019-04-28T06:24:48.082Z,4.73
2019-04-28T06:27:33.550Z,4.33
2019-04-28T06:30:20.089Z,5.20
2019-04-28T06:33:08.116Z,4.70
2019-04-28T06:35:55.409Z,4.53
2019-04-28T06:38:40.947Z,4.37
2019-04-28T06:41:27.046Z,4.77
2019-04-28T06:44:12.924Z,5.43
2019-04-28T06:46:59.545Z,5.37
2019-04-28T06:49:45.322Z,4.87
2019-04-28T06:52:31.220Z,4.60
2019-04-28T06:55:17.314Z,4.63
2019-04-28T06:58:03.509Z,5.30
2019-04-28T07:00:49.093Z,4.90
2019-04-28T07:03:35.803Z,4.57
2019-04-28T07:06:21.652Z,5.10
2019-04-28T07:09:07.426Z,5.20
2019-04-28T07:11:53.737Z,4.30
2019-04-28T07:14:39.437Z,5.43
2019-04-28T07:17:25.185Z,5.90
2019-04-28T07:20:28.882Z,4.70
2019-04-28T07:23:14.459Z,4.50
2019-04-28T07:26:00.825Z,5.30
2019-04-28T07:28:47.056Z,5.40
2019-04-28T07:31:33.565Z,5.83
2019-04-28T07:34:20.269Z,4.63
2019-04-28T07:37:07.038Z,6.67
2019-04-28T07:39:52.875Z,5.90
2019-04-28T07:42:39.657Z,7.83
2019-04-28T07:45:25.738Z,6.27
2019-04-28T07:48:11.568Z,6.77
2019-04-28T07:50:58.077Z,6.73
2019-04-28T07:53:48.183Z,7.63
2019-04-28T07:56:33.856Z,8.37
2019-04-28T07:59:20.187Z,9.73
2019-04-28T08:02:06.023Z,9.00
2019-04-28T08:04:51.733Z,10.07
2019-04-28T08:07:37.650Z,9.00
2019-04-28T08:10:23.594Z,10.20
2019-04-28T08:13:11.890Z,9.73
2019-04-28T08:15:58.070Z,13.20
2019-04-28T08:18:43.582Z,14.13
2019-04-28T08:21:29.364Z,14.77
2019-04-28T08:24:17.213Z,12.77
2019-04-28T08:27:03.624Z,12.57
2019-04-28T08:29:58.281Z,12.77
2019-04-28T08:32:53.062Z,12.47
2019-04-28T08:35:38.922Z,13.33
2019-04-28T08:38:25.442Z,11.83
2019-04-28T08:41:10.966Z,11.03
2019-04-28T08:43:56.721Z,9.93
2019-04-28T08:46:42.493Z,10.43
2019-04-28T08:49:27.986Z,9.70
2019-04-28T08:52:13.791Z,10.50
2019-04-28T08:54:59.782Z,9.53
2019-04-28T08:57:45.534Z,10.57
2019-04-28T09:00:31.174Z,9.70
2019-04-28T09:03:16.973Z,9.77
2019-04-28T09:06:03.716Z,9.20
2019-04-28T09:08:49.156Z,10.33
2019-04-28T09:11:35.166Z,8.43
2019-04-28T09:14:21.015Z,8.83
2019-04-28T09:17:06.534Z,9.53
2019-04-28T09:19:53.566Z,9.20
2019-04-28T09:22:39.218Z,8.70
2019-04-28T09:25:25.983Z,10.27
2019-04-28T09:28:14.189Z,9.93
2019-04-28T09:31:01.650Z,8.47
2019-04-28T09:33:50.022Z,9.13
2019-04-28T09:36:38.654Z,10.07
2019-04-28T09:40:02.435Z,8.93
2019-04-28T09:43:06.586Z,9.43
2019-04-28T09:45:57.892Z,10.10
2019-04-28T09:48:44.498Z,10.13
2019-04-28T09:51:31.343Z,11.10
2019-04-28T09:54:17.451Z,10.90
2019-04-28T09:57:03.748Z,10.40
2019-04-28T09:59:49.214Z,10.47
2019-04-28T10:02:34.891Z,8.33
2019-04-28T10:05:24.736Z,8.37
2019-04-28T10:08:10.546Z,7.77
2019-04-28T10:10:56.355Z,5.93
2019-04-28T10:13:45.793Z,7.40
2019-04-28T10:16:32.563Z,6.47
2019-04-28T10:19:18.718Z,8.23
2019-04-28T10:22:08.481Z,9.03
2019-04-28T10:24:54.682Z,9.43
2019-04-28T10:27:41.221Z,9.40
2019-04-28T10:30:29.211Z,8.60
2019-04-28T10:33:14.848Z,8.77
2019-04-28T10:36:01.616Z,7.93
2019-04-28T10:38:52.355Z,8.03
2019-04-28T10:41:39.563Z,7.87
2019-04-28T10:44:26.487Z,9.27
2019-04-28T10:47:12.528Z,7.93
2019-04-28T10:49:58.138Z,7.63
2019-04-28T10:52:43.728Z,6.20
2019-04-28T10:55:32.674Z,5.23
2019-04-28T10:58:18.664Z,5.17
2019-04-28T11:01:05.315Z,6.83
2019-04-28T11:03:53.663Z,5.83
2019-04-28T11:06:39.552Z,5.40
2019-04-28T11:09:31.395Z,5.17
2019-04-28T11:12:22.411Z,5.03
2019-04-28T11:15:11.776Z,5.43
2019-04-28T11:17:57.513Z,5.30
2019-04-28T11:20:43.465Z,5.00
2019-04-28T11:23:29.387Z,5.10
2019-04-28T11:26:15.199Z,5.97
2019-04-28T11:29:01.472Z,5.30
2019-04-28T11:31:47.473Z,4.70
2019-04-28T11:34:56.039Z,4.70
2019-04-28T11:37:42.275Z,5.40
2019-04-28T11:40:28.178Z,4.90
2019-04-28T11:43:15.291Z,4.87
2019-04-28T11:46:02.008Z,5.30
2019-04-28T11:48:47.926Z,5.37
2019-04-28T11:51:34.208Z,4.63
2019-04-28T11:54:19.992Z,4.10
2019-04-28T11:57:05.878Z,3.20
2019-04-28T11:59:54.107Z,3.73
2019-04-28T12:02:39.908Z,3.43
2019-04-28T12:05:34.788Z,3.87
2019-04-28T12:08:18.340Z,3.73
2019-04-28T12:11:42.440Z,3.30
2019-04-28T12:14:36.528Z,3.23
2019-04-28T12:17:46.145Z,3.83
2019-04-28T12:20:35.132Z,3.30
2019-04-28T12:23:20.966Z,3.57
2019-04-28T12:26:06.387Z,3.20
2019-04-28T12:28:52.137Z,3.90
2019-04-28T12:31:39.504Z,3.50
2019-04-28T12:34:25.324Z,3.33
2019-04-28T12:37:10.940Z,4.23
2019-04-28T12:39:57.712Z,4.07
2019-04-28T12:42:43.216Z,3.77
2019-04-28T12:45:35.165Z,3.70
2019-04-28T12:48:17.007Z,3.90
2019-04-28T12:51:02.687Z,4.10
2019-04-28T12:53:51.935Z,3.70
2019-04-28T12:56:37.398Z,4.00
2019-04-28T12:59:28.614Z,3.70
2019-04-28T13:02:28.362Z,4.30
2019-04-28T13:05:14.940Z,3.90
2019-04-28T13:08:04.156Z,3.57
2019-04-28T13:10:50.185Z,3.13
2019-04-28T13:13:36.249Z,3.60
2019-04-28T13:16:22.252Z,4.00
2019-04-28T13:19:08.380Z,3.57
2019-04-28T13:21:54.747Z,3.90
2019-04-28T13:24:41.317Z,4.00
2019-04-28T13:27:28.792Z,4.67
2019-04-28T13:30:15.173Z,3.63
2019-04-28T13:33:02.114Z,3.77
2019-04-28T13:35:48.375Z,4.43
2019-04-28T13:38:35.746Z,4.00
2019-04-28T13:41:21.951Z,4.50
2019-04-28T13:44:10.083Z,4.13
2019-04-28T13:47:13.408Z,4.00
2019-04-28T13:50:05.623Z,3.73
2019-04-28T13:52:51.825Z,3.40
2019-04-28T13:55:59.392Z,4.30
2019-04-28T13:58:50.113Z,4.53
2019-04-28T14:01:55.717Z,4.70
2019-04-28T14:04:50.776Z,6.23
2019-04-28T14:07:41.681Z,7.03
2019-04-28T14:10:25.415Z,6.87
2019-04-28T14:13:15.082Z,6.73
2019-04-28T14:16:01.013Z,6.87
2019-04-28T14:18:50.764Z,6.10
2019-04-28T14:21:36.886Z,5.93
2019-04-28T14:24:22.731Z,6.00
2019-04-28T14:27:09.771Z,5.93
2019-04-28T14:29:55.891Z,6.90
2019-04-28T14:32:43.388Z,6.57
2019-04-28T14:35:32.750Z,6.17
2019-04-28T14:38:19.084Z,6.90
2019-04-28T14:41:05.619Z,6.70
2019-04-28T14:43:52.345Z,7.37
2019-04-28T14:46:38.359Z,6.60
2019-04-28T14:49:24.373Z,7.07
2019-04-28T14:52:09.884Z,6.47
2019-04-28T14:54:56.066Z,6.27
2019-04-28T14:57:42.489Z,6.00
2019-04-28T15:00:34.091Z,5.63
2019-04-28T15:03:20.008Z,6.23
2019-04-28T15:06:15.427Z,5.70
2019-04-28T15:09:21.030Z,5.40
2019-04-28T15:12:07.290Z,5.73
2019-04-28T15:14:53.238Z,5.30
2019-04-28T15:17:38.989Z,4.83
2019-04-28T15:20:24.474Z,5.07
2019-04-28T15:23:10.652Z,4.93
2019-04-28T15:25:58.975Z,5.20
2019-04-28T15:28:44.612Z,4.70
2019-04-28T15:31:29.966Z,4.83
2019-04-28T15:34:15.776Z,4.93
2019-04-28T15:37:10.237Z,4.83
2019-04-28T15:39:56.339Z,5.27
2019-04-28T15:42:42.735Z,5.40
2019-04-28T15:45:30.264Z,4.73
2019-04-28T15:48:16.126Z,5.13
2019-04-28T15:51:02.601Z,5.17
2019-04-28T15:53:48.389Z,6.00
2019-04-28T15:56:47.404Z,5.00
2019-04-28T15:59:33.207Z,5.80
2019-04-28T16:02:19.415Z,5.30
2019-04-28T16:05:05.505Z,5.80
2019-04-28T16:07:50.916Z,4.73
2019-04-28T16:10:36.663Z,5.30
2019-04-28T16:13:23.016Z,6.07
2019-04-28T16:16:09.596Z,6.77
2019-04-28T16:18:55.844Z,6.83
2019-04-28T16:21:43.544Z,7.27
2019-04-28T16:24:30.380Z,8.47
2019-04-28T16:27:16.220Z,8.30
2019-04-28T16:30:04.403Z,7.70
2019-04-28T16:32:50.272Z,8.57
2019-04-28T16:35:37.624Z,9.27
2019-04-28T16:38:23.592Z,9.37
2019-04-28T16:41:14.024Z,9.27
2019-04-28T16:44:04.175Z,8.90
2019-04-28T16:46:49.862Z,8.77
2019-04-28T16:49:37.906Z,8.60
2019-04-28T16:52:24.148Z,8.40
2019-04-28T16:55:14.417Z,9.23
2019-04-28T16:58:13.588Z,8.83
2019-04-28T17:01:19.262Z,7.97
2019-04-28T17:04:05.286Z,8.30
2019-04-28T17:06:51.004Z,8.60
2019-04-28T17:09:36.833Z,7.20
2019-04-28T17:12:22.305Z,7.27
2019-04-28T17:15:08.176Z,7.90
2019-04-28T17:17:53.762Z,7.43
2019-04-28T17:20:39.257Z,7.50
2019-04-28T17:23:25.448Z,6.60
2019-04-28T17:26:11.649Z,6.67
2019-04-28T17:28:57.642Z,7.13
2019-04-28T17:31:43.941Z,7.50
2019-04-28T17:34:31.264Z,8.07
2019-04-28T17:37:16.891Z,8.83
2019-04-28T17:40:03.925Z,8.30
2019-04-28T17:42:50.281Z,9.13
2019-04-28T17:45:36.465Z,9.73
2019-04-28T17:48:28.395Z,9.63
2019-04-28T17:51:14.349Z,8.80
2019-04-28T17:54:00.169Z,8.00
2019-04-28T17:56:46.228Z,8.57
2019-04-28T17:59:35.515Z,9.77
2019-04-28T18:02:40.049Z,10.10
2019-04-28T18:05:31.249Z,11.30
2019-04-28T18:08:21.097Z,11.43
2019-04-28T18:11:05.205Z,10.50
2019-04-28T18:13:50.799Z,9.93
2019-04-28T18:16:56.681Z,10.30
2019-04-28T18:19:44.645Z,10.83
2019-04-28T18:22:31.561Z,11.20
2019-04-28T18:25:17.617Z,9.43
2019-04-28T18:28:04.031Z,10.77
2019-04-28T18:31:07.793Z,11.70
2019-04-28T18:34:09.997Z,12.00
2019-04-28T18:37:21.772Z,11.33
2019-04-28T18:40:16.086Z,10.40
2019-04-28T18:43:11.405Z,10.53
2019-04-28T18:45:57.276Z,12.23
2019-04-28T18:48:43.974Z,11.23
2019-04-28T18:51:44.319Z,10.90
2019-04-28T18:54:42.546Z,11.57
2019-04-28T18:57:31.760Z,12.23
2019-04-28T19:00:20.633Z,11.50
2019-04-28T19:03:06.739Z,11.97
2019-04-28T19:05:53.461Z,11.90
2019-04-28T19:08:49.252Z,12.80
2019-04-28T19:11:45.287Z,12.90
2019-04-28T19:14:38.061Z,12.50
2019-04-28T19:17:42.070Z,12.67
2019-04-28T19:20:27.910Z,12.97
2019-04-28T19:23:13.798Z,13.43
2019-04-28T19:26:00.176Z,13.03
2019-04-28T19:28:45.680Z,13.00
2019-04-28T19:31:31.719Z,12.10
2019-04-28T19:34:18.747Z,12.83
2019-04-28T19:37:04.954Z,13.67
2019-04-28T19:39:51.202Z,11.37
2019-04-28T19:42:38.993Z,11.60
2019-04-28T19:45:24.730Z,12.80
2019-04-28T19:48:11.206Z,12.77
2019-04-28T19:51:01.659Z,13.00
2019-04-28T19:53:47.510Z,13.60
2019-04-28T19:56:39.210Z,13.77
2019-04-28T19:59:35.656Z,13.27
2019-04-28T20:02:22.031Z,14.27
2019-04-28T20:05:08.471Z,14.13
2019-04-28T20:07:54.696Z,15.00
2019-04-28T20:10:40.613Z,15.70
2019-04-28T20:13:31.185Z,15.30
2019-04-28T20:16:16.694Z,15.67
2019-04-28T20:19:02.759Z,15.33
2019-04-28T20:21:48.907Z,14.97
2019-04-28T20:24:46.558Z,15.67
2019-04-28T20:27:21.956Z,17.03
2019-04-28T20:30:08.082Z,16.60
2019-04-28T20:33:06.524Z,17.03
2019-04-28T20:35:46.906Z,17.30
2019-04-28T20:38:33.457Z,17.27
2019-04-28T20:41:22.294Z,16.03
2019-04-28T20:44:08.061Z,18.23
2019-04-28T20:46:57.127Z,16.80
2019-04-28T20:49:43.140Z,17.67
2019-04-28T20:52:29.428Z,18.17
2019-04-28T20:55:15.796Z,19.00
2019-04-28T20:58:01.620Z,17.97
2019-04-28T21:00:47.844Z,18.30
2019-04-28T21:03:33.810Z,18.23
2019-04-28T21:06:19.799Z,18.03
2019-04-28T21:09:09.497Z,17.73
2019-04-28T21:11:54.697Z,17.90
2019-04-28T21:14:40.243Z,18.17
2019-04-28T21:17:26.331Z,18.40
2019-04-28T21:20:12.735Z,19.47
2019-04-28T21:22:59.035Z,17.00
2019-04-28T21:25:44.509Z,19.17
2019-04-28T21:28:30.499Z,17.53
2019-04-28T21:31:16.409Z,17.77
2019-04-28T21:34:02.157Z,17.43
2019-04-28T21:36:48.204Z,16.93
2019-04-28T21:39:34.451Z,16.20
2019-04-28T21:42:22.810Z,17.43
2019-04-28T21:45:23.245Z,17.37
2019-04-28T21:48:09.541Z,17.73
2019-04-28T21:50:55.473Z,18.10
2019-04-28T21:53:43.432Z,17.40
2019-04-28T21:56:29.304Z,18.07
2019-04-28T21:59:14.895Z,17.57
2019-04-28T22:02:01.238Z,18.03
2019-04-28T22:04:47.088Z,17.07
2019-04-28T22:07:33.337Z,17.97
2019-04-28T22:10:19.741Z,18.97
2019-04-28T22:13:07.679Z,17.97
2019-04-28T22:15:53.567Z,17.87
2019-04-28T22:18:40.495Z,17.50
2019-04-28T22:21:26.023Z,17.47
2019-04-28T22:24:24.547Z,18.13
2019-04-28T22:27:12.525Z,18.60
2019-04-28T22:29:58.065Z,17.23
2019-04-28T22:32:43.957Z,18.43
2019-04-28T22:35:29.874Z,18.07
2019-04-28T22:38:15.427Z,16.93
2019-04-28T22:41:01.217Z,17.97
2019-04-28T22:43:46.692Z,19.07
2019-04-28T22:46:32.593Z,19.80
2019-04-28T22:49:18.469Z,19.57
2019-04-28T22:52:04.462Z,18.50
2019-04-28T22:55:11.133Z,18.73
2019-04-28T22:58:04.704Z,18.80
2019-04-28T23:01:10.565Z,19.23
2019-04-28T23:04:25.652Z,20.13
2019-04-28T23:07:11.653Z,19.17
2019-04-28T23:09:57.937Z,19.97
2019-04-28T23:12:43.849Z,19.23
2019-04-28T23:15:29.485Z,20.23
2019-04-28T23:18:15.600Z,18.83
2019-04-28T23:21:06.254Z,18.53
2019-04-28T23:23:52.198Z,18.23
2019-04-28T23:26:38.152Z,18.20
2019-04-28T23:29:23.869Z,19.00
2019-04-28T23:32:09.538Z,19.03
2019-04-28T23:34:55.404Z,18.87
2019-04-28T23:37:41.182Z,17.67
2019-04-28T23:40:27.141Z,19.07
2019-04-28T23:43:17.713Z,18.63
2019-04-28T23:46:03.414Z,19.17
2019-04-28T23:48:49.242Z,19.97
2019-04-28T23:51:41.734Z,21.10
2019-04-28T23:54:27.658Z,19.87
2019-04-28T23:57:13.410Z,19.33
2019-04-28T23:59:59.694Z,19.20
